sensor_id;sensor_type;location;lat;lon;timestamp;P1;durP1;ratioP1;P2;durP2;ratioP2
53931;SDS011;39844;52.496;13.482;2022-07-22T00:00:10;4.70;;;3.75;;
53931;SDS011;39844;52.496;13.482;2022-07-22T00:02:36;4.47;;;3.63;;
53931;SDS011;39844;52.496;13.482;2022-07-22T00:05:01;4.18;;;3.72;;
53931;SDS011;39844;52.496;13.482;2022-07-22T00:07:27;3.45;;;3.15;;
53931;SDS011;39844;52.496;13.482;2022-07-22T00:09:52;3.25;;;3.00;;
53931;SDS011;39844;52.496;13.482;2022-07-22T00:12:18;4.22;;;3.83;;
53931;SDS011;39844;52.496;13.482;2022-07-22T00:14:43;3.40;;;3.10;;
53931;SDS011;39844;52.496;13.482;2022-07-22T00:17:08;4.25;;;3.85;;
53931;SDS011;39844;52.496;13.482;2022-07-22T00:19:34;3.58;;;3.28;;
53931;SDS011;39844;52.496;13.482;2022-07-22T00:22:00;4.10;;;3.50;;
53931;SDS011;39844;52.496;13.482;2022-07-22T00:24:25;3.97;;;3.60;;
53931;SDS011;39844;52.496;13.482;2022-07-22T00:26:51;3.35;;;3.05;;
53931;SDS011;39844;52.496;13.482;2022-07-22T00:29:16;5.90;;;3.20;;
53931;SDS011;39844;52.496;13.482;2022-07-22T00:31:41;3.22;;;3.03;;
53931;SDS011;39844;52.496;13.482;2022-07-22T00:34:06;3.22;;;2.92;;
53931;SDS011;39844;52.496;13.482;2022-07-22T00:36:32;3.25;;;2.95;;
53931;SDS011;39844;52.496;13.482;2022-07-22T00:38:58;3.70;;;3.10;;
53931;SDS011;39844;52.496;13.482;2022-07-22T00:41:23;4.18;;;2.85;;
53931;SDS011;39844;52.496;13.482;2022-07-22T00:43:50;3.20;;;3.00;;
53931;SDS011;39844;52.496;13.482;2022-07-22T00:46:18;4.28;;;3.35;;
53931;SDS011;39844;52.496;13.482;2022-07-22T00:48:44;3.22;;;3.00;;
53931;SDS011;39844;52.496;13.482;2022-07-22T00:51:09;3.50;;;2.80;;
53931;SDS011;39844;52.496;13.482;2022-07-22T00:53:35;3.35;;;2.80;;
53931;SDS011;39844;52.496;13.482;2022-07-22T00:56:01;3.22;;;2.92;;
53931;SDS011;39844;52.496;13.482;2022-07-22T00:58:28;3.53;;;3.22;;
53931;SDS011;39844;52.496;13.482;2022-07-22T01:00:54;3.35;;;2.97;;
53931;SDS011;39844;52.496;13.482;2022-07-22T01:03:19;3.72;;;2.78;;
53931;SDS011;39844;52.496;13.482;2022-07-22T01:05:44;3.10;;;2.63;;
53931;SDS011;39844;52.496;13.482;2022-07-22T01:08:10;4.70;;;3.33;;
53931;SDS011;39844;52.496;13.482;2022-07-22T01:10:35;6.10;;;3.28;;
53931;SDS011;39844;52.496;13.482;2022-07-22T01:13:00;3.28;;;2.92;;
53931;SDS011;39844;52.496;13.482;2022-07-22T01:15:26;3.42;;;3.08;;
53931;SDS011;39844;52.496;13.482;2022-07-22T01:17:51;3.53;;;3.00;;
53931;SDS011;39844;52.496;13.482;2022-07-22T01:20:16;3.55;;;2.80;;
53931;SDS011;39844;52.496;13.482;2022-07-22T01:22:42;4.47;;;3.28;;
53931;SDS011;39844;52.496;13.482;2022-07-22T01:25:09;5.40;;;3.10;;
53931;SDS011;39844;52.496;13.482;2022-07-22T01:27:35;3.22;;;2.67;;
53931;SDS011;39844;52.496;13.482;2022-07-22T01:30:01;3.40;;;3.10;;
53931;SDS011;39844;52.496;13.482;2022-07-22T01:32:27;3.40;;;3.08;;
53931;SDS011;39844;52.496;13.482;2022-07-22T01:34:53;3.30;;;3.00;;
53931;SDS011;39844;52.496;13.482;2022-07-22T01:37:18;3.80;;;3.03;;
53931;SDS011;39844;52.496;13.482;2022-07-22T01:39:43;5.78;;;3.05;;
53931;SDS011;39844;52.496;13.482;2022-07-22T01:42:09;3.00;;;2.70;;
53931;SDS011;39844;52.496;13.482;2022-07-22T01:44:34;3.15;;;2.90;;
53931;SDS011;39844;52.496;13.482;2022-07-22T01:46:59;2.92;;;2.72;;
53931;SDS011;39844;52.496;13.482;2022-07-22T01:49:25;4.03;;;3.38;;
53931;SDS011;39844;52.496;13.482;2022-07-22T01:51:51;3.25;;;2.83;;
53931;SDS011;39844;52.496;13.482;2022-07-22T01:54:16;2.95;;;2.75;;
53931;SDS011;39844;52.496;13.482;2022-07-22T01:56:42;3.05;;;2.60;;
53931;SDS011;39844;52.496;13.482;2022-07-22T01:59:08;2.80;;;2.65;;
53931;SDS011;39844;52.496;13.482;2022-07-22T02:01:33;2.42;;;2.22;;
53931;SDS011;39844;52.496;13.482;2022-07-22T02:03:58;2.67;;;2.00;;
53931;SDS011;39844;52.496;13.482;2022-07-22T02:06:24;3.13;;;2.80;;
53931;SDS011;39844;52.496;13.482;2022-07-22T02:08:49;2.40;;;2.20;;
53931;SDS011;39844;52.496;13.482;2022-07-22T02:11:14;2.75;;;2.38;;
53931;SDS011;39844;52.496;13.482;2022-07-22T02:13:40;2.60;;;2.40;;
53931;SDS011;39844;52.496;13.482;2022-07-22T02:16:05;2.28;;;2.13;;
53931;SDS011;39844;52.496;13.482;2022-07-22T02:18:30;2.65;;;2.45;;
53931;SDS011;39844;52.496;13.482;2022-07-22T02:20:56;2.95;;;2.70;;
53931;SDS011;39844;52.496;13.482;2022-07-22T02:23:21;3.47;;;2.90;;
53931;SDS011;39844;52.496;13.482;2022-07-22T02:25:46;2.80;;;2.60;;
53931;SDS011;39844;52.496;13.482;2022-07-22T02:28:12;2.63;;;2.45;;
53931;SDS011;39844;52.496;13.482;2022-07-22T02:30:37;2.45;;;2.22;;
53931;SDS011;39844;52.496;13.482;2022-07-22T02:33:03;2.58;;;2.38;;
53931;SDS011;39844;52.496;13.482;2022-07-22T02:35:29;3.47;;;2.70;;
53931;SDS011;39844;52.496;13.482;2022-07-22T02:37:54;2.90;;;2.70;;
53931;SDS011;39844;52.496;13.482;2022-07-22T02:40:20;3.70;;;2.77;;
53931;SDS011;39844;52.496;13.482;2022-07-22T02:42:45;2.65;;;2.47;;
53931;SDS011;39844;52.496;13.482;2022-07-22T02:45:11;2.70;;;2.50;;
53931;SDS011;39844;52.496;13.482;2022-07-22T02:47:46;4.32;;;3.17;;
53931;SDS011;39844;52.496;13.482;2022-07-22T02:50:15;2.78;;;2.58;;
53931;SDS011;39844;52.496;13.482;2022-07-22T02:52:41;2.43;;;2.33;;
53931;SDS011;39844;52.496;13.482;2022-07-22T02:55:06;4.27;;;2.80;;
53931;SDS011;39844;52.496;13.482;2022-07-22T02:57:32;2.83;;;2.63;;
53931;SDS011;39844;52.496;13.482;2022-07-22T02:59:57;3.33;;;3.13;;
53931;SDS011;39844;52.496;13.482;2022-07-22T03:02:22;3.57;;;3.27;;
53931;SDS011;39844;52.496;13.482;2022-07-22T03:04:48;5.17;;;3.17;;
53931;SDS011;39844;52.496;13.482;2022-07-22T03:07:13;4.87;;;3.03;;
53931;SDS011;39844;52.496;13.482;2022-07-22T03:09:38;7.23;;;2.80;;
53931;SDS011;39844;52.496;13.482;2022-07-22T03:12:04;3.30;;;3.00;;
53931;SDS011;39844;52.496;13.482;2022-07-22T03:14:29;3.63;;;2.93;;
53931;SDS011;39844;52.496;13.482;2022-07-22T03:16:54;4.73;;;3.10;;
53931;SDS011;39844;52.496;13.482;2022-07-22T03:19:20;7.43;;;3.20;;
53931;SDS011;39844;52.496;13.482;2022-07-22T03:21:45;4.63;;;3.10;;
53931;SDS011;39844;52.496;13.482;2022-07-22T03:24:10;2.93;;;2.63;;
53931;SDS011;39844;52.496;13.482;2022-07-22T03:26:36;3.43;;;3.07;;
53931;SDS011;39844;52.496;13.482;2022-07-22T03:29:01;3.00;;;2.70;;
53931;SDS011;39844;52.496;13.482;2022-07-22T03:31:27;3.27;;;2.97;;
53931;SDS011;39844;52.496;13.482;2022-07-22T03:33:52;4.70;;;3.03;;
53931;SDS011;39844;52.496;13.482;2022-07-22T03:36:18;3.92;;;3.35;;
53931;SDS011;39844;52.496;13.482;2022-07-22T03:38:43;3.33;;;3.03;;
53931;SDS011;39844;52.496;13.482;2022-07-22T03:41:08;3.43;;;2.83;;
53931;SDS011;39844;52.496;13.482;2022-07-22T03:43:33;3.57;;;3.27;;
53931;SDS011;39844;52.496;13.482;2022-07-22T03:45:59;3.13;;;2.93;;
53931;SDS011;39844;52.496;13.482;2022-07-22T03:48:24;3.40;;;2.97;;
53931;SDS011;39844;52.496;13.482;2022-07-22T03:50:50;4.43;;;3.73;;
53931;SDS011;39844;52.496;13.482;2022-07-22T03:53:16;3.33;;;2.87;;
53931;SDS011;39844;52.496;13.482;2022-07-22T03:55:42;3.30;;;3.00;;
53931;SDS011;39844;52.496;13.482;2022-07-22T03:58:07;4.67;;;3.53;;
53931;SDS011;39844;52.496;13.482;2022-07-22T04:00:33;3.20;;;2.97;;
53931;SDS011;39844;52.496;13.482;2022-07-22T04:02:58;4.28;;;3.20;;
53931;SDS011;39844;52.496;13.482;2022-07-22T04:05:24;3.73;;;3.27;;
53931;SDS011;39844;52.496;13.482;2022-07-22T04:07:49;7.10;;;3.83;;
53931;SDS011;39844;52.496;13.482;2022-07-22T04:10:14;4.38;;;3.97;;
53931;SDS011;39844;52.496;13.482;2022-07-22T04:12:40;3.38;;;3.10;;
53931;SDS011;39844;52.496;13.482;2022-07-22T04:15:06;3.95;;;3.53;;
53931;SDS011;39844;52.496;13.482;2022-07-22T04:17:33;4.93;;;3.37;;
53931;SDS011;39844;52.496;13.482;2022-07-22T04:19:58;5.43;;;3.40;;
53931;SDS011;39844;52.496;13.482;2022-07-22T04:22:25;4.18;;;3.72;;
53931;SDS011;39844;52.496;13.482;2022-07-22T04:24:51;3.30;;;3.05;;
53931;SDS011;39844;52.496;13.482;2022-07-22T04:27:17;4.00;;;3.60;;
53931;SDS011;39844;52.496;13.482;2022-07-22T04:29:42;4.13;;;3.72;;
53931;SDS011;39844;52.496;13.482;2022-07-22T04:32:07;5.40;;;3.00;;
53931;SDS011;39844;52.496;13.482;2022-07-22T04:34:32;4.55;;;3.78;;
53931;SDS011;39844;52.496;13.482;2022-07-22T04:36:58;5.00;;;3.47;;
53931;SDS011;39844;52.496;13.482;2022-07-22T04:39:23;4.68;;;4.03;;
53931;SDS011;39844;52.496;13.482;2022-07-22T04:41:49;5.17;;;3.77;;
53931;SDS011;39844;52.496;13.482;2022-07-22T04:44:14;4.13;;;2.88;;
53931;SDS011;39844;52.496;13.482;2022-07-22T04:46:39;3.75;;;3.33;;
53931;SDS011;39844;52.496;13.482;2022-07-22T04:49:05;4.50;;;3.67;;
53931;SDS011;39844;52.496;13.482;2022-07-22T04:51:30;4.33;;;3.93;;
53931;SDS011;39844;52.496;13.482;2022-07-22T04:53:55;4.63;;;4.20;;
53931;SDS011;39844;52.496;13.482;2022-07-22T04:56:21;5.35;;;4.80;;
53931;SDS011;39844;52.496;13.482;2022-07-22T04:58:46;4.80;;;4.30;;
53931;SDS011;39844;52.496;13.482;2022-07-22T05:01:11;6.17;;;4.40;;
53931;SDS011;39844;52.496;13.482;2022-07-22T05:03:38;6.55;;;4.10;;
53931;SDS011;39844;52.496;13.482;2022-07-22T05:06:04;4.43;;;3.95;;
53931;SDS011;39844;52.496;13.482;2022-07-22T05:08:29;7.70;;;5.22;;
53931;SDS011;39844;52.496;13.482;2022-07-22T05:10:54;4.37;;;3.97;;
53931;SDS011;39844;52.496;13.482;2022-07-22T05:13:20;4.50;;;3.67;;
53931;SDS011;39844;52.496;13.482;2022-07-22T05:15:45;5.07;;;4.30;;
53931;SDS011;39844;52.496;13.482;2022-07-22T05:18:11;5.68;;;3.92;;
53931;SDS011;39844;52.496;13.482;2022-07-22T05:20:36;6.13;;;4.80;;
53931;SDS011;39844;52.496;13.482;2022-07-22T05:23:01;4.60;;;4.10;;
53931;SDS011;39844;52.496;13.482;2022-07-22T05:25:27;4.83;;;4.27;;
53931;SDS011;39844;52.496;13.482;2022-07-22T05:27:53;5.32;;;4.80;;
53931;SDS011;39844;52.496;13.482;2022-07-22T05:30:19;6.80;;;4.65;;
53931;SDS011;39844;52.496;13.482;2022-07-22T05:32:45;4.80;;;4.28;;
53931;SDS011;39844;52.496;13.482;2022-07-22T05:35:10;6.28;;;4.10;;
53931;SDS011;39844;52.496;13.482;2022-07-22T05:37:36;4.18;;;3.78;;
53931;SDS011;39844;52.496;13.482;2022-07-22T05:40:01;4.80;;;4.37;;
53931;SDS011;39844;52.496;13.482;2022-07-22T05:42:27;5.40;;;4.45;;
53931;SDS011;39844;52.496;13.482;2022-07-22T05:44:52;5.17;;;4.20;;
53931;SDS011;39844;52.496;13.482;2022-07-22T05:47:18;4.63;;;4.15;;
53931;SDS011;39844;52.496;13.482;2022-07-22T05:49:43;4.93;;;4.43;;
53931;SDS011;39844;52.496;13.482;2022-07-22T05:52:08;4.43;;;4.00;;
53931;SDS011;39844;52.496;13.482;2022-07-22T05:54:34;5.05;;;4.55;;
53931;SDS011;39844;52.496;13.482;2022-07-22T05:56:59;6.50;;;4.45;;
53931;SDS011;39844;52.496;13.482;2022-07-22T05:59:24;7.53;;;4.05;;
53931;SDS011;39844;52.496;13.482;2022-07-22T06:01:49;4.07;;;3.70;;
53931;SDS011;39844;52.496;13.482;2022-07-22T06:04:15;5.78;;;3.97;;
53931;SDS011;39844;52.496;13.482;2022-07-22T06:06:40;5.43;;;3.92;;
53931;SDS011;39844;52.496;13.482;2022-07-22T06:09:06;8.52;;;4.72;;
53931;SDS011;39844;52.496;13.482;2022-07-22T06:11:31;4.30;;;3.83;;
53931;SDS011;39844;52.496;13.482;2022-07-22T06:13:56;4.05;;;3.75;;
53931;SDS011;39844;52.496;13.482;2022-07-22T06:16:22;6.00;;;3.72;;
53931;SDS011;39844;52.496;13.482;2022-07-22T06:18:47;4.68;;;4.18;;
53931;SDS011;39844;52.496;13.482;2022-07-22T06:21:12;4.80;;;4.15;;
53931;SDS011;39844;52.496;13.482;2022-07-22T06:23:38;6.07;;;5.03;;
53931;SDS011;39844;52.496;13.482;2022-07-22T06:26:03;5.18;;;4.65;;
53931;SDS011;39844;52.496;13.482;2022-07-22T06:28:28;14.30;;;4.28;;
53931;SDS011;39844;52.496;13.482;2022-07-22T06:30:54;4.30;;;3.92;;
53931;SDS011;39844;52.496;13.482;2022-07-22T06:33:19;5.25;;;3.90;;
53931;SDS011;39844;52.496;13.482;2022-07-22T06:35:44;6.22;;;4.18;;
53931;SDS011;39844;52.496;13.482;2022-07-22T06:38:10;5.22;;;3.75;;
53931;SDS011;39844;52.496;13.482;2022-07-22T06:40:35;4.93;;;3.92;;
53931;SDS011;39844;52.496;13.482;2022-07-22T06:43:01;8.68;;;4.47;;
53931;SDS011;39844;52.496;13.482;2022-07-22T06:45:27;5.03;;;3.88;;
53931;SDS011;39844;52.496;13.482;2022-07-22T06:47:53;6.87;;;4.47;;
53931;SDS011;39844;52.496;13.482;2022-07-22T06:50:18;5.75;;;4.32;;
53931;SDS011;39844;52.496;13.482;2022-07-22T06:52:44;5.20;;;4.63;;
53931;SDS011;39844;52.496;13.482;2022-07-22T06:55:09;5.18;;;4.40;;
53931;SDS011;39844;52.496;13.482;2022-07-22T06:57:36;5.35;;;4.28;;
53931;SDS011;39844;52.496;13.482;2022-07-22T07:00:04;4.65;;;4.32;;
53931;SDS011;39844;52.496;13.482;2022-07-22T07:02:32;4.70;;;4.30;;
53931;SDS011;39844;52.496;13.482;2022-07-22T07:04:57;4.50;;;4.10;;
53931;SDS011;39844;52.496;13.482;2022-07-22T07:07:23;5.45;;;4.57;;
53931;SDS011;39844;52.496;13.482;2022-07-22T07:09:48;4.93;;;4.25;;
53931;SDS011;39844;52.496;13.482;2022-07-22T07:12:13;4.25;;;3.83;;
53931;SDS011;39844;52.496;13.482;2022-07-22T07:14:38;4.50;;;4.15;;
53931;SDS011;39844;52.496;13.482;2022-07-22T07:17:04;6.25;;;3.90;;
53931;SDS011;39844;52.496;13.482;2022-07-22T07:19:29;5.07;;;3.55;;
53931;SDS011;39844;52.496;13.482;2022-07-22T07:21:54;5.13;;;4.07;;
53931;SDS011;39844;52.496;13.482;2022-07-22T07:24:20;4.55;;;4.13;;
53931;SDS011;39844;52.496;13.482;2022-07-22T07:26:45;3.97;;;3.67;;
53931;SDS011;39844;52.496;13.482;2022-07-22T07:29:10;4.72;;;4.32;;
53931;SDS011;39844;52.496;13.482;2022-07-22T07:31:36;4.53;;;3.70;;
53931;SDS011;39844;52.496;13.482;2022-07-22T07:34:01;3.45;;;3.22;;
53931;SDS011;39844;52.496;13.482;2022-07-22T07:36:26;4.97;;;4.05;;
53931;SDS011;39844;52.496;13.482;2022-07-22T07:38:52;4.13;;;3.83;;
53931;SDS011;39844;52.496;13.482;2022-07-22T07:41:17;4.05;;;3.70;;
53931;SDS011;39844;52.496;13.482;2022-07-22T07:43:42;3.33;;;2.97;;
53931;SDS011;39844;52.496;13.482;2022-07-22T07:46:08;4.35;;;3.95;;
53931;SDS011;39844;52.496;13.482;2022-07-22T07:48:33;4.57;;;3.35;;
53931;SDS011;39844;52.496;13.482;2022-07-22T07:50:58;3.60;;;3.38;;
53931;SDS011;39844;52.496;13.482;2022-07-22T07:53:24;4.88;;;3.47;;
53931;SDS011;39844;52.496;13.482;2022-07-22T07:55:50;3.83;;;3.53;;
53931;SDS011;39844;52.496;13.482;2022-07-22T07:58:15;3.72;;;3.42;;
53931;SDS011;39844;52.496;13.482;2022-07-22T08:00:41;3.22;;;3.03;;
53931;SDS011;39844;52.496;13.482;2022-07-22T08:03:07;4.18;;;3.50;;
53931;SDS011;39844;52.496;13.482;2022-07-22T08:05:32;4.07;;;3.53;;
53931;SDS011;39844;52.496;13.482;2022-07-22T08:07:59;3.72;;;3.42;;
53931;SDS011;39844;52.496;13.482;2022-07-22T08:10:24;3.90;;;3.00;;
53931;SDS011;39844;52.496;13.482;2022-07-22T08:12:50;3.28;;;2.97;;
53931;SDS011;39844;52.496;13.482;2022-07-22T08:15:15;3.05;;;2.85;;
53931;SDS011;39844;52.496;13.482;2022-07-22T08:17:41;3.28;;;2.83;;
53931;SDS011;39844;52.496;13.482;2022-07-22T08:20:06;3.55;;;3.25;;
53931;SDS011;39844;52.496;13.482;2022-07-22T08:22:33;3.17;;;2.90;;
53931;SDS011;39844;52.496;13.482;2022-07-22T08:24:58;3.13;;;2.92;;
53931;SDS011;39844;52.496;13.482;2022-07-22T08:27:24;3.88;;;3.10;;
53931;SDS011;39844;52.496;13.482;2022-07-22T08:29:49;3.05;;;2.75;;
53931;SDS011;39844;52.496;13.482;2022-07-22T08:32:14;3.53;;;2.80;;
53931;SDS011;39844;52.496;13.482;2022-07-22T08:34:40;3.42;;;3.10;;
53931;SDS011;39844;52.496;13.482;2022-07-22T08:37:05;4.43;;;2.92;;
53931;SDS011;39844;52.496;13.482;2022-07-22T08:39:31;3.15;;;2.95;;
53931;SDS011;39844;52.496;13.482;2022-07-22T08:41:57;3.05;;;2.85;;
53931;SDS011;39844;52.496;13.482;2022-07-22T08:44:22;3.45;;;2.70;;
53931;SDS011;39844;52.496;13.482;2022-07-22T08:46:48;2.88;;;2.67;;
53931;SDS011;39844;52.496;13.482;2022-07-22T08:49:14;2.63;;;2.42;;
53931;SDS011;39844;52.496;13.482;2022-07-22T08:51:41;3.47;;;3.17;;
53931;SDS011;39844;52.496;13.482;2022-07-22T08:54:06;2.97;;;2.78;;
53931;SDS011;39844;52.496;13.482;2022-07-22T08:56:32;3.08;;;2.88;;
53931;SDS011;39844;52.496;13.482;2022-07-22T08:58:57;3.30;;;3.00;;
53931;SDS011;39844;52.496;13.482;2022-07-22T09:01:22;2.85;;;2.65;;
53931;SDS011;39844;52.496;13.482;2022-07-22T09:03:49;5.03;;;2.80;;
53931;SDS011;39844;52.496;13.482;2022-07-22T09:06:21;3.20;;;3.00;;
53931;SDS011;39844;52.496;13.482;2022-07-22T09:11:21;2.63;;;2.42;;
53931;SDS011;39844;52.496;13.482;2022-07-22T09:13:48;2.92;;;2.72;;
53931;SDS011;39844;52.496;13.482;2022-07-22T09:16:14;2.45;;;2.30;;
53931;SDS011;39844;52.496;13.482;2022-07-22T09:18:50;2.55;;;2.40;;
53931;SDS011;39844;52.496;13.482;2022-07-22T09:21:16;2.55;;;2.42;;
53931;SDS011;39844;52.496;13.482;2022-07-22T09:23:42;4.32;;;2.65;;
53931;SDS011;39844;52.496;13.482;2022-07-22T09:26:08;2.95;;;2.75;;
53931;SDS011;39844;52.496;13.482;2022-07-22T09:28:34;2.92;;;2.70;;
53931;SDS011;39844;52.496;13.482;2022-07-22T09:30:59;2.78;;;2.58;;
53931;SDS011;39844;52.496;13.482;2022-07-22T09:33:25;2.90;;;2.70;;
53931;SDS011;39844;52.496;13.482;2022-07-22T09:35:51;2.60;;;2.47;;
53931;SDS011;39844;52.496;13.482;2022-07-22T09:38:28;2.58;;;2.38;;
53931;SDS011;39844;52.496;13.482;2022-07-22T09:40:54;3.50;;;2.83;;
53931;SDS011;39844;52.496;13.482;2022-07-22T09:43:20;2.50;;;2.30;;
53931;SDS011;39844;52.496;13.482;2022-07-22T09:48:19;2.75;;;2.55;;
53931;SDS011;39844;52.496;13.482;2022-07-22T09:50:45;2.63;;;2.42;;
53931;SDS011;39844;52.496;13.482;2022-07-22T09:53:12;2.30;;;2.17;;
53931;SDS011;39844;52.496;13.482;2022-07-22T09:55:38;2.25;;;2.15;;
53931;SDS011;39844;52.496;13.482;2022-07-22T09:58:04;1.83;;;1.80;;
53931;SDS011;39844;52.496;13.482;2022-07-22T10:00:32;1.98;;;1.88;;
53931;SDS011;39844;52.496;13.482;2022-07-22T10:03:00;2.00;;;1.90;;
53931;SDS011;39844;52.496;13.482;2022-07-22T10:05:27;1.80;;;1.70;;
53931;SDS011;39844;52.496;13.482;2022-07-22T10:07:54;1.80;;;1.70;;
53931;SDS011;39844;52.496;13.482;2022-07-22T10:10:21;1.63;;;1.55;;
53931;SDS011;39844;52.496;13.482;2022-07-22T10:12:49;1.83;;;1.73;;
53931;SDS011;39844;52.496;13.482;2022-07-22T10:15:15;1.25;;;1.20;;
53931;SDS011;39844;52.496;13.482;2022-07-22T10:17:42;1.75;;;1.65;;
53931;SDS011;39844;52.496;13.482;2022-07-22T10:20:10;1.20;;;1.20;;
53931;SDS011;39844;52.496;13.482;2022-07-22T10:25:06;1.63;;;1.52;;
53931;SDS011;39844;52.496;13.482;2022-07-22T10:27:53;1.45;;;1.45;;
53931;SDS011;39844;52.496;13.482;2022-07-22T10:30:37;1.40;;;1.40;;
53931;SDS011;39844;52.496;13.482;2022-07-22T10:33:12;1.30;;;1.25;;
53931;SDS011;39844;52.496;13.482;2022-07-22T10:35:55;1.58;;;1.48;;
53931;SDS011;39844;52.496;13.482;2022-07-22T10:38:25;2.25;;;1.73;;
53931;SDS011;39844;52.496;13.482;2022-07-22T10:40:56;1.75;;;1.65;;
53931;SDS011;39844;52.496;13.482;2022-07-22T10:43:24;2.60;;;2.08;;
53931;SDS011;39844;52.496;13.482;2022-07-22T10:46:08;1.83;;;1.73;;
53931;SDS011;39844;52.496;13.482;2022-07-22T10:51:09;2.03;;;1.92;;
53931;SDS011;39844;52.496;13.482;2022-07-22T11:01:17;2.22;;;2.10;;
53931;SDS011;39844;52.496;13.482;2022-07-22T11:03:44;2.20;;;2.10;;
53931;SDS011;39844;52.496;13.482;2022-07-22T11:06:27;1.80;;;1.70;;
53931;SDS011;39844;52.496;13.482;2022-07-22T11:08:58;2.17;;;2.08;;
53931;SDS011;39844;52.496;13.482;2022-07-22T11:11:33;2.30;;;2.10;;
53931;SDS011;39844;52.496;13.482;2022-07-22T11:14:00;2.15;;;2.05;;
53931;SDS011;39844;52.496;13.482;2022-07-22T11:16:26;1.80;;;1.70;;
53931;SDS011;39844;52.496;13.482;2022-07-22T11:19:00;2.20;;;2.10;;
53931;SDS011;39844;52.496;13.482;2022-07-22T11:21:28;2.03;;;1.92;;
53931;SDS011;39844;52.496;13.482;2022-07-22T11:23:57;1.60;;;1.60;;
53931;SDS011;39844;52.496;13.482;2022-07-22T11:26:35;1.90;;;1.80;;
53931;SDS011;39844;52.496;13.482;2022-07-22T11:29:01;1.92;;;1.83;;
53931;SDS011;39844;52.496;13.482;2022-07-22T11:31:27;2.78;;;2.00;;
53931;SDS011;39844;52.496;13.482;2022-07-22T11:34:03;1.85;;;1.75;;
53931;SDS011;39844;52.496;13.482;2022-07-22T11:36:31;1.65;;;1.65;;
53931;SDS011;39844;52.496;13.482;2022-07-22T11:38:57;2.50;;;2.30;;
53931;SDS011;39844;52.496;13.482;2022-07-22T11:41:23;1.88;;;1.77;;
53931;SDS011;39844;52.496;13.482;2022-07-22T11:43:49;2.13;;;2.03;;
53931;SDS011;39844;52.496;13.482;2022-07-22T11:46:15;2.30;;;2.10;;
53931;SDS011;39844;52.496;13.482;2022-07-22T11:48:43;1.98;;;1.88;;
53931;SDS011;39844;52.496;13.482;2022-07-22T11:51:09;2.30;;;2.20;;
53931;SDS011;39844;52.496;13.482;2022-07-22T11:53:38;2.50;;;2.40;;
53931;SDS011;39844;52.496;13.482;2022-07-22T11:56:05;2.75;;;2.63;;
53931;SDS011;39844;52.496;13.482;2022-07-22T11:58:45;2.90;;;2.70;;
53931;SDS011;39844;52.496;13.482;2022-07-22T12:01:13;1.92;;;1.80;;
53931;SDS011;39844;52.496;13.482;2022-07-22T12:03:41;2.30;;;2.20;;
53931;SDS011;39844;52.496;13.482;2022-07-22T12:06:11;2.28;;;2.08;;
53931;SDS011;39844;52.496;13.482;2022-07-22T12:08:40;9.68;;;2.55;;
53931;SDS011;39844;52.496;13.482;2022-07-22T12:11:07;2.58;;;2.38;;
53931;SDS011;39844;52.496;13.482;2022-07-22T12:13:34;2.30;;;2.10;;
53931;SDS011;39844;52.496;13.482;2022-07-22T12:15:59;2.10;;;2.00;;
53931;SDS011;39844;52.496;13.482;2022-07-22T12:18:25;1.75;;;1.67;;
53931;SDS011;39844;52.496;13.482;2022-07-22T12:20:52;2.25;;;2.05;;
53931;SDS011;39844;52.496;13.482;2022-07-22T12:23:20;7.50;;;4.90;;
53931;SDS011;39844;52.496;13.482;2022-07-22T12:25:53;5.85;;;5.25;;
53931;SDS011;39844;52.496;13.482;2022-07-22T12:28:24;2.38;;;2.28;;
53931;SDS011;39844;52.496;13.482;2022-07-22T12:30:50;2.38;;;2.28;;
53931;SDS011;39844;52.496;13.482;2022-07-22T12:33:18;1.92;;;1.83;;
53931;SDS011;39844;52.496;13.482;2022-07-22T12:35:45;1.95;;;1.85;;
53931;SDS011;39844;52.496;13.482;2022-07-22T12:38:24;2.00;;;1.90;;
53931;SDS011;39844;52.496;13.482;2022-07-22T12:40:49;2.25;;;2.15;;
53931;SDS011;39844;52.496;13.482;2022-07-22T12:43:14;2.10;;;2.00;;
53931;SDS011;39844;52.496;13.482;2022-07-22T12:45:40;1.80;;;1.70;;
53931;SDS011;39844;52.496;13.482;2022-07-22T12:48:07;2.05;;;1.95;;
53931;SDS011;39844;52.496;13.482;2022-07-22T12:50:34;1.95;;;1.85;;
53931;SDS011;39844;52.496;13.482;2022-07-22T12:53:23;2.20;;;2.00;;
53931;SDS011;39844;52.496;13.482;2022-07-22T12:55:50;1.67;;;1.58;;
53931;SDS011;39844;52.496;13.482;2022-07-22T12:58:20;2.00;;;1.90;;
53931;SDS011;39844;52.496;13.482;2022-07-22T13:00:47;1.90;;;1.80;;
53931;SDS011;39844;52.496;13.482;2022-07-22T13:03:14;1.80;;;1.70;;
53931;SDS011;39844;52.496;13.482;2022-07-22T13:05:39;1.70;;;1.70;;
53931;SDS011;39844;52.496;13.482;2022-07-22T13:08:06;1.58;;;1.58;;
53931;SDS011;39844;52.496;13.482;2022-07-22T13:10:32;1.70;;;1.60;;
53931;SDS011;39844;52.496;13.482;2022-07-22T13:12:57;1.73;;;1.63;;
53931;SDS011;39844;52.496;13.482;2022-07-22T13:15:23;1.70;;;1.60;;
53931;SDS011;39844;52.496;13.482;2022-07-22T13:17:48;2.03;;;1.65;;
53931;SDS011;39844;52.496;13.482;2022-07-22T13:20:15;2.10;;;2.00;;
53931;SDS011;39844;52.496;13.482;2022-07-22T13:22:42;2.50;;;1.40;;
53931;SDS011;39844;52.496;13.482;2022-07-22T13:25:08;1.83;;;1.73;;
53931;SDS011;39844;52.496;13.482;2022-07-22T13:27:34;1.70;;;1.65;;
53931;SDS011;39844;52.496;13.482;2022-07-22T13:29:59;1.48;;;1.48;;
53931;SDS011;39844;52.496;13.482;2022-07-22T13:32:25;1.63;;;1.60;;
53931;SDS011;39844;52.496;13.482;2022-07-22T13:34:50;1.65;;;1.58;;
53931;SDS011;39844;52.496;13.482;2022-07-22T13:37:15;1.40;;;1.40;;
53931;SDS011;39844;52.496;13.482;2022-07-22T13:39:41;1.30;;;1.30;;
53931;SDS011;39844;52.496;13.482;2022-07-22T13:42:07;2.60;;;1.60;;
53931;SDS011;39844;52.496;13.482;2022-07-22T13:44:32;1.20;;;1.20;;
53931;SDS011;39844;52.496;13.482;2022-07-22T13:47:00;1.58;;;1.48;;
53931;SDS011;39844;52.496;13.482;2022-07-22T13:49:25;1.20;;;1.20;;
53931;SDS011;39844;52.496;13.482;2022-07-22T13:51:51;1.40;;;1.40;;
53931;SDS011;39844;52.496;13.482;2022-07-22T13:54:17;1.23;;;1.23;;
53931;SDS011;39844;52.496;13.482;2022-07-22T13:56:43;1.40;;;1.30;;
53931;SDS011;39844;52.496;13.482;2022-07-22T13:59:09;1.38;;;1.38;;
53931;SDS011;39844;52.496;13.482;2022-07-22T14:01:36;1.25;;;1.25;;
53931;SDS011;39844;52.496;13.482;2022-07-22T14:04:01;1.23;;;1.23;;
53931;SDS011;39844;52.496;13.482;2022-07-22T14:06:27;1.33;;;1.33;;
53931;SDS011;39844;52.496;13.482;2022-07-22T14:08:53;1.20;;;1.20;;
53931;SDS011;39844;52.496;13.482;2022-07-22T14:11:18;1.42;;;1.42;;
53931;SDS011;39844;52.496;13.482;2022-07-22T14:13:43;1.45;;;1.38;;
53931;SDS011;39844;52.496;13.482;2022-07-22T14:16:08;1.20;;;1.20;;
53931;SDS011;39844;52.496;13.482;2022-07-22T14:18:52;1.40;;;1.40;;
53931;SDS011;39844;52.496;13.482;2022-07-22T14:21:18;1.88;;;1.27;;
53931;SDS011;39844;52.496;13.482;2022-07-22T14:23:43;1.17;;;1.17;;
53931;SDS011;39844;52.496;13.482;2022-07-22T14:26:08;1.23;;;1.23;;
53931;SDS011;39844;52.496;13.482;2022-07-22T14:28:33;1.35;;;1.30;;
53931;SDS011;39844;52.496;13.482;2022-07-22T14:30:59;1.30;;;1.30;;
53931;SDS011;39844;52.496;13.482;2022-07-22T14:33:24;1.10;;;1.10;;
53931;SDS011;39844;52.496;13.482;2022-07-22T14:35:49;1.00;;;1.00;;
53931;SDS011;39844;52.496;13.482;2022-07-22T14:38:15;1.30;;;1.20;;
53931;SDS011;39844;52.496;13.482;2022-07-22T14:40:40;1.23;;;1.23;;
53931;SDS011;39844;52.496;13.482;2022-07-22T14:43:05;1.30;;;1.20;;
53931;SDS011;39844;52.496;13.482;2022-07-22T14:45:31;1.30;;;1.20;;